Time;durP1;ratioP1;P1;durP2;ratioP2;P2;SDS_P1;SDS_P2;PMS_P1;PMS_P2;Temp;Humidity;BMP_temperature;BMP_pressure;BME280_temperature;BME280_humidity;BME280_pressure;Samples;Min_cycle;Max_cycle;Signal;HPM_P1;HPM_P2
2023/10/30 09:10:39;;;;;;;18.02;6.57;;;;;;;22.36;42.15;95296.56;5127598;27;20277;-69
2023/10/30 09:13:04;;;;;;;8.80;5.47;;;;;;;22.42;42.66;95292.78;5127484;27;20181;-69
2023/10/30 09:15:30;;;;;;;16.52;6.10;;;;;;;22.41;43.55;95293.03;5126035;27;20274;-69
2023/10/30 09:17:55;;;;;;;9.88;5.25;;;;;;;22.38;44.10;95278.31;5127487;28;20246;-70
2023/10/30 09:20:20;;;;;;;9.65;4.97;;;;;;;22.27;43.71;95271.38;5127332;27;20168;-70
2023/10/30 09:22:46;;;;;;;10.20;5.25;;;;;;;22.45;44.80;95284.19;5127280;27;20168;-69
2023/10/30 09:25:11;;;;;;;19.10;5.72;;;;;;;22.34;43.41;95274.56;5132090;27;20236;-69
2023/10/30 09:27:38;;;;;;;16.70;5.55;;;;;;;22.30;43.93;95268.16;5146019;27;20176;-69
2023/10/30 09:30:06;;;;;;;12.43;5.43;;;;;;;22.50;44.07;95269.94;5127124;27;20290;-70
2023/10/30 09:32:31;;;;;;;8.60;5.22;;;;;;;22.76;43.67;95268.75;5126966;27;20282;-70
2023/10/30 09:34:58;;;;;;;9.80;5.72;;;;;;;22.54;44.12;95276.38;5127235;27;20175;-69
2023/10/30 09:37:25;;;;;;;15.25;5.78;;;;;;;22.56;44.14;95263.47;5127558;27;21002;-70
2023/10/30 09:39:51;;;;;;;15.95;5.22;;;;;;;22.45;44.64;95264.59;5125793;27;20267;-70
2023/10/30 09:42:16;;;;;;;11.15;5.05;;;;;;;22.07;45.91;95253.44;5137621;27;20650;-70
2023/10/30 09:44:42;;;;;;;11.00;6.00;;;;;;;22.08;46.55;95249.69;5145765;27;20168;-69
2023/10/30 09:47:09;;;;;;;11.73;5.85;;;;;;;21.88;46.32;95252.38;5146074;27;20172;-70
2023/10/30 09:49:35;;;;;;;10.70;5.90;;;;;;;21.89;46.27;95248.63;5146208;27;20240;-70
2023/10/30 09:52:04;;;;;;;15.75;6.70;;;;;;;21.68;46.86;95241.72;5146231;27;20638;-70
2023/10/30 09:54:30;;;;;;;22.73;7.05;;;;;;;21.49;47.37;95240.66;5137150;27;20177;-69
2023/10/30 09:56:56;;;;;;;15.68;6.90;;;;;;;21.55;47.02;95227.00;5126576;27;20275;-70
2023/10/30 09:59:22;;;;;;;11.05;5.53;;;;;;;21.60;47.20;95223.50;5126666;27;20169;-70
2023/10/30 10:01:48;;;;;;;11.70;5.53;;;;;;;21.63;47.86;95222.97;5126616;27;20176;-70
2023/10/30 10:04:13;;;;;;;12.32;5.68;;;;;;;21.66;47.78;95206.34;5126587;27;20256;-70
2023/10/30 10:06:41;;;;;;;12.35;5.35;;;;;;;21.72;46.98;95208.75;5126752;27;20252;-70
2023/10/30 10:09:07;;;;;;;11.35;5.03;;;;;;;21.83;47.25;95202.28;5126241;27;20216;-70
2023/10/30 10:11:36;;;;;;;18.63;5.20;;;;;;;21.99;47.45;95205.75;5126596;27;20587;-70
2023/10/30 10:14:02;;;;;;;14.98;5.80;;;;;;;21.97;46.27;95204.38;5126074;27;20200;-70
2023/10/30 10:16:30;;;;;;;13.90;4.90;;;;;;;21.89;46.85;95196.88;5126454;27;20646;-70
2023/10/30 10:18:56;;;;;;;9.23;4.85;;;;;;;21.78;47.08;95180.06;5126503;27;20255;-70
2023/10/30 10:21:22;;;;;;;10.40;4.13;;;;;;;21.79;46.69;95171.72;5116273;27;20252;-70
2023/10/30 10:23:48;;;;;;;12.00;4.85;;;;;;;21.84;47.28;95181.63;5112437;28;20169;-70
2023/10/30 10:26:14;;;;;;;8.55;4.60;;;;;;;21.68;47.77;95182.75;5112383;28;20181;-70
2023/10/30 10:28:41;;;;;;;13.02;5.10;;;;;;;21.41;47.63;95169.69;5112020;27;20566;-70
2023/10/30 10:31:07;;;;;;;14.82;5.32;;;;;;;21.36;47.94;95178.50;5112397;27;20175;-70
2023/10/30 10:33:34;;;;;;;3.47;2.33;;;;;;;21.36;46.16;95180.41;5127997;27;20172;-71
2023/10/30 10:36:02;;;;;;;7.75;2.83;;;;;;;21.35;47.88;95178.81;5132372;27;20707;-70
2023/10/30 10:38:28;;;;;;;6.57;3.60;;;;;;;21.31;47.80;95173.19;5132855;27;20168;-70
2023/10/30 10:40:57;;;;;;;9.63;3.35;;;;;;;21.33;48.73;95168.38;5132460;27;20295;-71
2023/10/30 10:43:25;;;;;;;6.93;3.70;;;;;;;21.32;47.64;95152.56;5132399;27;20274;-70
2023/10/30 10:45:53;;;;;;;8.10;3.75;;;;;;;21.27;47.43;95147.22;5132365;27;20191;-70
2023/10/30 10:48:21;;;;;;;15.55;4.30;;;;;;;21.33;47.63;95168.38;5132117;27;20177;-70
2023/10/30 10:50:50;;;;;;;9.85;3.50;;;;;;;21.34;48.94;95166.50;5132167;27;20192;-70
2023/10/30 10:53:19;;;;;;;12.93;3.95;;;;;;;21.36;49.19;95159.75;5132311;27;20241;-70
2023/10/30 10:55:48;;;;;;;8.60;3.22;;;;;;;21.41;47.92;95156.28;5111456;27;20180;-70
2023/10/30 10:58:38;;;;;;;7.13;3.58;;;;;;;21.47;47.47;95144.47;5116913;27;20186;-70
2023/10/30 11:01:05;;;;;;;8.15;3.47;;;;;;;21.58;47.38;95150.63;5131933;27;20596;-70
2023/10/30 11:03:31;;;;;;;8.93;2.80;;;;;;;21.61;46.23;95142.06;5131857;27;20191;-70
2023/10/30 11:05:57;;;;;;;13.23;3.28;;;;;;;21.62;46.75;95143.66;5131736;27;20180;-70
2023/10/30 11:08:43;;;;;;;6.32;2.85;;;;;;;21.69;45.24;95139.63;5130907;27;20687;-70
2023/10/30 11:11:12;;;;;;;5.65;2.63;;;;;;;21.73;46.27;95131.81;5131376;27;20184;-70
2023/10/30 11:13:49;;;;;;;4.78;2.65;;;;;;;21.65;46.13;95117.09;5131515;27;20182;-70
2023/10/30 11:16:24;;;;;;;3.83;2.40;;;;;;;21.77;46.55;95112.25;5131460;27;20188;-70
2023/10/30 11:18:57;;;;;;;5.60;2.60;;;;;;;21.73;45.66;95113.84;5131324;27;20207;-70
2023/10/30 11:21:25;;;;;;;9.35;3.15;;;;;;;21.79;45.50;95120.00;5131821;27;20176;-70
2023/10/30 11:23:53;;;;;;;8.05;2.30;;;;;;;21.74;45.69;95120.03;5131688;27;20498;-70
2023/10/30 11:26:36;;;;;;;6.57;2.78;;;;;;;21.76;46.12;95113.31;5130252;27;20200;-70
2023/10/30 11:29:09;;;;;;;6.03;2.40;;;;;;;21.80;46.18;95106.31;5129448;27;20210;-70
2023/10/30 11:32:03;;;;;;;4.80;2.63;;;;;;;21.82;45.80;95106.03;5128808;27;20842;-70
2023/10/30 11:34:38;;;;;;;6.43;2.70;;;;;;;21.86;46.17;95099.06;5130021;27;20258;-70
2023/10/30 11:37:14;;;;;;;4.53;2.25;;;;;;;21.95;45.81;95097.41;5130090;27;20642;-70
2023/10/30 11:39:42;;;;;;;6.63;2.63;;;;;;;21.90;46.05;95078.66;5129767;27;20197;-70
2023/10/30 11:42:22;;;;;;;4.90;2.20;;;;;;;22.06;45.24;95098.97;5129024;27;20268;-70
2023/10/30 11:44:52;;;;;;;7.40;2.25;;;;;;;22.08;44.75;95087.97;5129455;27;20191;-70
2023/10/30 11:47:24;;;;;;;11.13;2.97;;;;;;;22.07;45.51;95081.00;5128730;27;20225;-70
2023/10/30 11:49:50;;;;;;;4.22;2.45;;;;;;;22.21;44.60;95084.69;5128738;27;20846;-70
2023/10/30 11:52:19;;;;;;;5.10;2.78;;;;;;;22.20;43.28;95083.91;5128620;27;20268;-70
2023/10/30 11:54:45;;;;;;;5.35;2.10;;;;;;;22.15;43.90;95077.75;5129382;27;20176;-70
2023/10/30 11:57:11;;;;;;;3.65;2.67;;;;;;;22.17;43.95;95068.34;5130763;27;20168;-70
2023/10/30 11:59:37;;;;;;;4.97;2.55;;;;;;;22.04;44.04;95052.09;5130702;27;20169;-70
2023/10/30 12:02:05;;;;;;;4.57;2.00;;;;;;;22.01;43.78;95061.47;5130723;27;20177;-70
2023/10/30 12:04:32;;;;;;;5.53;2.60;;;;;;;22.13;43.40;95075.38;5130557;27;20558;-70
2023/10/30 12:06:58;;;;;;;6.57;2.05;;;;;;;22.15;43.70;95072.38;5130577;27;20613;-70
2023/10/30 12:09:25;;;;;;;4.57;2.33;;;;;;;22.00;44.18;95051.84;5130175;27;20216;-70
2023/10/30 12:11:51;;;;;;;5.60;1.85;;;;;;;22.17;43.85;95065.66;5130335;27;20168;-70
2023/10/30 12:14:19;;;;;;;4.85;2.47;;;;;;;22.25;43.30;95064.28;5130958;27;20179;-70
2023/10/30 12:16:48;;;;;;;7.70;2.30;;;;;;;22.26;43.13;95057.03;5123857;27;20255;-70
2023/10/30 12:19:16;;;;;;;7.55;2.67;;;;;;;22.19;42.20;95044.75;5109064;27;20169;-70
2023/10/30 12:21:42;;;;;;;6.40;2.83;;;;;;;22.20;42.44;95049.03;5109301;27;20165;-70
2023/10/30 12:24:08;;;;;;;6.72;2.15;;;;;;;22.19;43.33;95046.63;5111433;27;20169;-69
2023/10/30 12:26:41;;;;;;;6.53;2.08;;;;;;;22.27;41.99;95050.59;5107354;28;20200;-69
2023/10/30 12:29:07;;;;;;;4.68;2.38;;;;;;;22.25;42.23;95052.75;5108484;28;20185;-69
2023/10/30 12:31:34;;;;;;;6.57;2.28;;;;;;;22.25;41.95;95042.00;5095549;28;20546;-69
2023/10/30 12:34:07;;;;;;;5.05;2.08;;;;;;;22.27;42.46;95043.34;5109322;28;20181;-69
2023/10/30 12:36:34;;;;;;;7.05;2.30;;;;;;;22.32;41.69;95042.50;5109792;28;20181;-70
2023/10/30 12:39:15;;;;;;;5.95;2.33;;;;;;;22.32;41.51;95032.56;5091527;28;20188;-70
2023/10/30 12:41:41;;;;;;;4.05;1.85;;;;;;;22.35;41.89;95033.91;5110146;28;20749;-69
2023/10/30 12:44:07;;;;;;;7.82;1.95;;;;;;;22.35;41.60;95033.91;5109795;28;20188;-70
2023/10/30 12:46:32;;;;;;;3.10;2.03;;;;;;;22.40;41.11;95029.28;5110069;28;20500;-70
2023/10/30 12:48:58;;;;;;;5.78;2.50;;;;;;;22.41;41.53;95024.72;5109957;28;20702;-69
2023/10/30 12:51:24;;;;;;;3.33;2.17;;;;;;;22.38;40.98;95009.19;5109863;28;20178;-70
2023/10/30 12:53:50;;;;;;;3.70;1.90;;;;;;;22.38;40.82;95009.19;5109183;28;20181;-70
2023/10/30 12:56:15;;;;;;;4.70;1.85;;;;;;;22.47;41.08;95023.63;5108315;28;20179;-70
2023/10/30 12:58:41;;;;;;;4.13;2.25;;;;;;;22.42;41.30;95016.41;5109211;28;20165;-70
2023/10/30 13:01:06;;;;;;;6.72;2.33;;;;;;;22.42;41.60;95015.59;5109228;28;20600;-70
2023/10/30 13:03:32;;;;;;;3.92;2.20;;;;;;;22.44;41.25;95013.44;5109106;28;20214;-70
2023/10/30 13:05:58;;;;;;;7.35;2.47;;;;;;;22.46;40.73;95013.97;5109005;28;20562;-70
2023/10/30 13:08:23;;;;;;;9.07;2.33;;;;;;;22.42;40.93;95010.22;5108618;28;20169;-70
2023/10/30 13:10:48;;;;;;;5.63;1.92;;;;;;;22.39;40.97;95008.13;5109063;28;20177;-70
2023/10/30 13:13:18;;;;;;;6.50;2.30;;;;;;;22.40;40.87;95015.09;5109042;28;20169;-70
2023/10/30 13:15:45;;;;;;;3.40;2.22;;;;;;;22.37;41.27;95012.97;5108955;28;20173;-70
2023/10/30 13:18:11;;;;;;;7.60;2.13;;;;;;;22.46;40.29;95008.59;5108899;28;20176;-70
2023/10/30 13:20:36;;;;;;;14.55;3.05;;;;;;;22.39;39.96;95003.56;5108849;28;20188;-70
2023/10/30 13:23:02;;;;;;;2.83;1.80;;;;;;;22.34;40.39;95006.28;5108933;28;20623;-70
2023/10/30 13:25:27;;;;;;;9.30;2.22;;;;;;;22.30;40.49;95007.13;5108901;28;20181;-70
2023/10/30 13:27:52;;;;;;;13.77;2.63;;;;;;;22.27;41.29;95008.47;5108857;28;20173;-70
2023/10/30 13:30:18;;;;;;;6.38;3.08;;;;;;;22.26;41.85;95004.19;5108706;28;20273;-70
2023/10/30 13:32:43;;;;;;;4.97;2.10;;;;;;;22.28;41.08;95002.03;5108809;28;20185;-70
2023/10/30 13:35:09;;;;;;;3.40;1.90;;;;;;;22.36;40.16;95001.44;5108451;28;20172;-70
2023/10/30 13:37:35;;;;;;;5.03;2.13;;;;;;;22.35;39.56;94999.03;5108960;28;20169;-70
2023/10/30 13:40:00;;;;;;;6.78;1.92;;;;;;;22.30;39.94;95007.13;5108690;28;20173;-70
2023/10/30 13:42:26;;;;;;;5.72;1.88;;;;;;;22.24;39.83;94990.25;5108658;28;20181;-70
2023/10/30 13:44:51;;;;;;;5.68;2.30;;;;;;;22.26;39.89;95003.38;5109213;28;20587;-70
2023/10/30 13:47:17;;;;;;;7.65;2.10;;;;;;;22.22;39.97;94997.78;5108840;28;20165;-70
2023/10/30 13:49:43;;;;;;;4.45;1.80;;;;;;;22.19;39.87;94996.47;5108513;28;20232;-70
2023/10/30 13:52:08;;;;;;;8.18;1.83;;;;;;;22.18;39.70;94992.19;5108660;28;20268;-70
2023/10/30 13:54:36;;;;;;;3.80;1.80;;;;;;;22.01;40.38;94977.56;5073377;28;20207;-70
2023/10/30 13:57:01;;;;;;;4.30;1.90;;;;;;;22.10;40.17;94998.13;5111753;28;20608;-70
2023/10/30 13:59:26;;;;;;;5.10;2.00;;;;;;;22.16;40.02;94991.66;5112424;28;20183;-70
2023/10/30 14:01:53;;;;;;;6.57;2.25;;;;;;;22.11;40.32;94985.53;5112592;28;20233;-70
2023/10/30 14:04:19;;;;;;;5.55;2.30;;;;;;;22.05;40.80;94981.28;5112337;28;20169;-70
2023/10/30 14:06:44;;;;;;;4.25;2.35;;;;;;;21.98;40.92;94986.94;5112195;28;20670;-70
2023/10/30 14:09:12;;;;;;;5.85;2.00;;;;;;;22.02;40.50;94982.66;5111891;28;20320;-70
2023/10/30 14:11:38;;;;;;;6.05;1.98;;;;;;;21.93;40.79;94983.47;5112275;28;20651;-70
2023/10/30 14:14:04;;;;;;;7.40;2.28;;;;;;;21.80;40.98;94960.75;5112123;28;20251;-70
2023/10/30 14:16:30;;;;;;;4.53;1.88;;;;;;;21.78;40.89;94958.38;5112228;28;20180;-70
2023/10/30 14:18:55;;;;;;;6.18;2.38;;;;;;;21.88;40.88;94976.25;5112028;28;20169;-70
2023/10/30 14:21:24;;;;;;;6.30;2.58;;;;;;;21.77;40.59;94959.47;5111894;28;20177;-70
2023/10/30 14:23:50;;;;;;;4.13;2.45;;;;;;;21.88;40.57;94973.56;5111968;28;20173;-70
2023/10/30 14:26:16;;;;;;;6.85;2.25;;;;;;;21.89;40.52;94980.53;5111673;28;20248;-70
2023/10/30 14:28:41;;;;;;;5.20;1.90;;;;;;;21.69;40.78;94961.94;5111765;28;20207;-70
2023/10/30 14:31:07;;;;;;;4.82;2.40;;;;;;;21.64;40.83;94957.38;5112063;28;20230;-70
2023/10/30 14:33:33;;;;;;;3.10;1.73;;;;;;;21.67;41.05;94972.91;5111678;27;20173;-70
2023/10/30 14:35:58;;;;;;;6.88;2.17;;;;;;;21.63;41.00;94971.06;5112017;28;20177;-70
2023/10/30 14:38:24;;;;;;;5.40;1.88;;;;;;;21.57;41.48;94959.56;5111976;28;20195;-70
2023/10/30 14:40:50;;;;;;;11.68;2.97;;;;;;;21.59;42.01;94968.16;5111629;28;20226;-70
2023/10/30 14:43:15;;;;;;;12.25;2.92;;;;;;;21.55;42.95;94969.75;5111670;28;20572;-70
2023/10/30 14:45:40;;;;;;;15.60;2.90;;;;;;;21.33;43.79;94950.59;5111472;27;20556;-70
2023/10/30 14:48:06;;;;;;;13.63;3.25;;;;;;;21.37;44.52;94970.38;5111576;27;20659;-70
2023/10/30 14:50:31;;;;;;;18.25;4.50;;;;;;;21.33;44.33;94967.47;5111332;28;20555;-70
2023/10/30 14:52:57;;;;;;;12.65;3.05;;;;;;;21.25;44.84;94973.41;5111420;28;20173;-70
2023/10/30 14:55:22;;;;;;;8.55;3.13;;;;;;;21.19;45.38;94971.03;5093120;28;21202;-70
2023/10/30 14:57:48;;;;;;;12.15;3.00;;;;;;;21.09;45.47;94971.84;5111151;28;20180;-70
2023/10/30 15:00:14;;;;;;;18.70;5.00;;;;;;;20.95;46.20;94968.91;5111366;28;20165;-70
2023/10/30 15:02:39;;;;;;;20.67;4.75;;;;;;;20.71;46.81;94966.03;5110774;28;20406;-70
2023/10/30 15:05:05;;;;;;;39.63;9.53;;;;;;;20.57;47.42;94975.72;5110906;28;20418;-70
2023/10/30 15:07:31;;;;;;;24.92;6.53;;;;;;;20.45;47.83;94972.50;5109892;28;20897;-70
2023/10/30 15:09:56;;;;;;;22.00;6.15;;;;;;;20.33;47.38;94958.56;5111277;28;20227;-70
2023/10/30 15:12:22;;;;;;;23.58;5.65;;;;;;;20.43;47.54;94980.00;5111338;27;20173;-70
2023/10/30 15:14:47;;;;;;;19.38;4.70;;;;;;;20.35;48.42;94980.53;5111383;28;20180;-70
2023/10/30 15:17:13;;;;;;;21.10;5.07;;;;;;;20.26;48.57;94980.25;5111132;28;20173;-70
2023/10/30 15:19:39;;;;;;;14.75;6.18;;;;;;;20.13;48.89;94978.13;5111050;28;20173;-70
2023/10/30 15:22:05;;;;;;;15.27;4.05;;;;;;;20.04;49.15;94984.25;5111437;28;20173;-70
2023/10/30 15:24:30;;;;;;;27.67;5.00;;;;;;;19.92;50.22;94982.63;5111015;28;20184;-70
2023/10/30 15:26:56;;;;;;;23.48;4.35;;;;;;;19.85;49.54;94987.44;5111318;28;20255;-70
2023/10/30 15:29:21;;;;;;;15.07;3.90;;;;;;;19.78;50.16;94991.44;5109680;28;20422;-69
2023/10/30 15:31:47;;;;;;;20.40;4.35;;;;;;;19.59;50.36;95001.81;5110897;28;20187;-70
2023/10/30 15:34:12;;;;;;;19.60;4.20;;;;;;;19.42;51.05;95002.00;5110311;28;20415;-70
2023/10/30 15:36:38;;;;;;;29.65;5.95;;;;;;;19.40;51.03;95006.78;5110747;28;20647;-70
2023/10/30 15:39:04;;;;;;;20.92;5.20;;;;;;;19.37;51.06;95009.19;5110572;28;20173;-70
2023/10/30 15:41:31;;;;;;;30.50;5.57;;;;;;;19.28;51.41;95005.44;5110495;27;20184;-70
2023/10/30 15:43:57;;;;;;;21.45;5.82;;;;;;;19.21;51.85;95010.97;5091945;28;20181;-70
2023/10/30 15:46:22;;;;;;;35.25;7.07;;;;;;;19.11;52.34;95019.75;5110683;28;20169;-69
2023/10/30 15:48:49;;;;;;;59.75;13.07;;;;;;;18.95;52.11;95017.25;5110857;28;20659;-69
2023/10/30 15:51:15;;;;;;;34.50;7.70;;;;;;;18.58;53.22;95007.47;5110026;28;21003;-71
2023/10/30 15:53:41;;;;;;;55.42;7.38;;;;;;;18.74;53.82;95032.34;5110390;28;20505;-69
2023/10/30 15:56:07;;;;;;;38.90;7.35;;;;;;;18.71;53.06;95022.19;5111099;27;20345;-71
2023/10/30 15:58:32;;;;;;;33.72;7.00;;;;;;;18.71;53.72;95027.53;5110571;28;20631;-71
2023/10/30 16:00:57;;;;;;;43.03;8.07;;;;;;;18.61;53.94;95033.59;5110279;28;20224;-71
2023/10/30 16:03:23;;;;;;;51.08;7.97;;;;;;;18.46;54.35;95036.13;5110500;28;20173;-71
2023/10/30 16:05:48;;;;;;;43.25;10.30;;;;;;;18.27;54.81;95019.72;5110530;28;20184;-71
2023/10/30 16:08:14;;;;;;;32.30;8.13;;;;;;;18.20;55.36;95039.63;5110408;28;20222;-72
2023/10/30 16:10:40;;;;;;;35.30;8.82;;;;;;;18.08;55.94;95039.78;5110210;28;20189;-71
2023/10/30 16:13:07;;;;;;;34.58;7.40;;;;;;;17.86;56.12;95028.41;5110242;28;20184;-71
2023/10/30 16:15:33;;;;;;;37.60;9.07;;;;;;;17.89;56.51;95041.22;5092000;28;20188;-71
2023/10/30 16:17:58;;;;;;;17.65;6.03;;;;;;;17.80;56.84;95050.72;5110342;28;20173;-71
2023/10/30 16:20:24;;;;;;;35.07;9.30;;;;;;;17.63;56.88;95043.63;5108949;28;20830;-70
2023/10/30 16:22:49;;;;;;;40.72;8.35;;;;;;;17.62;57.74;95041.22;5110534;28;20173;-71
2023/10/30 16:25:15;;;;;;;37.38;9.50;;;;;;;17.57;57.34;95043.78;5110183;28;20184;-70
2023/10/30 16:27:40;;;;;;;32.85;8.05;;;;;;;17.55;56.26;95041.38;5110435;28;20579;-70
2023/10/30 16:30:07;;;;;;;39.92;10.75;;;;;;;17.55;57.17;95040.56;5109925;28;20269;-70
2023/10/30 16:32:32;;;;;;;24.45;8.13;;;;;;;17.55;57.69;95038.72;5110061;28;20438;-70
2023/10/30 16:34:58;;;;;;;22.25;7.88;;;;;;;17.60;57.03;95040.63;5092393;28;20173;-70
2023/10/30 16:37:23;;;;;;;21.37;6.43;;;;;;;17.48;55.65;95047.91;5109966;28;20905;-71
2023/10/30 16:39:49;;;;;;;20.33;6.95;;;;;;;17.24;57.38;95042.88;5109006;28;20430;-70
2023/10/30 16:42:14;;;;;;;28.17;14.55;;;;;;;17.27;57.08;95045.03;5110316;28;20219;-70
2023/10/30 16:44:40;;;;;;;33.58;9.88;;;;;;;17.27;57.44;95053.03;5110190;28;20164;-70
2023/10/30 16:47:05;;;;;;;27.63;8.13;;;;;;;17.17;57.97;95046.75;5109270;27;20173;-70
2023/10/30 16:49:31;;;;;;;16.42;5.28;;;;;;;17.09;56.86;95052.50;5110119;28;20235;-70
2023/10/30 16:51:57;;;;;;;13.73;4.50;;;;;;;16.96;56.01;95046.47;5109525;27;20817;-70
2023/10/30 16:54:23;;;;;;;18.77;6.97;;;;;;;16.98;56.58;95051.56;5108985;28;20453;-70
2023/10/30 16:56:48;;;;;;;14.57;5.50;;;;;;;17.06;56.29;95058.31;5109533;28;20180;-70
2023/10/30 16:59:14;;;;;;;12.43;5.50;;;;;;;17.04;56.16;95057.78;5109435;28;20277;-69
2023/10/30 17:01:39;;;;;;;17.67;5.60;;;;;;;17.01;57.15;95056.41;5109176;28;20176;-68
2023/10/30 17:04:05;;;;;;;16.45;6.03;;;;;;;17.04;56.65;95058.56;5090469;28;20199;-70
2023/10/30 17:06:30;;;;;;;17.08;5.63;;;;;;;16.95;56.77;95055.50;5107398;28;20513;-69
2023/10/30 17:08:55;;;;;;;9.25;4.72;;;;;;;16.84;56.06;95059.09;5108646;28;20248;-70
2023/10/30 17:11:21;;;;;;;15.75;5.05;;;;;;;16.64;56.87;95042.84;5108445;28;20620;-70
2023/10/30 17:13:47;;;;;;;19.90;5.50;;;;;;;16.77;57.42;95065.63;5108026;28;20188;-70
2023/10/30 17:16:13;;;;;;;21.63;6.13;;;;;;;16.72;58.30;95069.00;5109796;28;20233;-70
2023/10/30 17:18:38;;;;;;;25.27;7.68;;;;;;;16.65;58.71;95062.25;5109299;28;20612;-70
2023/10/30 17:21:07;;;;;;;33.63;6.88;;;;;;;16.57;58.79;95060.78;5109337;28;20210;-70
2023/10/30 17:23:33;;;;;;;26.35;6.90;;;;;;;16.44;59.42;95061.09;5108309;28;20263;-70
2023/10/30 17:25:59;;;;;;;25.20;7.55;;;;;;;16.26;59.85;95053.38;5109264;28;20322;-70
2023/10/30 17:28:25;;;;;;;18.90;8.48;;;;;;;16.20;60.22;95055.94;5116059;28;20179;-70
2023/10/30 17:30:51;;;;;;;21.92;6.93;;;;;;;16.17;60.41;95045.78;5112326;28;20196;-70
2023/10/30 17:33:16;;;;;;;24.10;6.72;;;;;;;16.12;60.72;95051.03;5113689;28;20207;-70
2023/10/30 17:35:42;;;;;;;16.73;6.45;;;;;;;16.08;60.89;95046.44;5114006;28;20659;-69
2023/10/30 17:38:07;;;;;;;21.48;7.93;;;;;;;15.93;60.63;95028.38;5095415;28;20184;-69
2023/10/30 17:40:33;;;;;;;18.30;7.20;;;;;;;16.04;60.91;95047.97;5113843;28;20173;-69
2023/10/30 17:42:58;;;;;;;19.45;6.57;;;;;;;15.98;61.25;95046.28;5112760;27;20185;-70
2023/10/30 17:45:24;;;;;;;17.10;6.70;;;;;;;15.94;61.19;95045.13;5113452;28;20639;-71
2023/10/30 17:47:50;;;;;;;29.27;10.20;;;;;;;15.85;61.77;95040.22;5113568;28;20169;-70
2023/10/30 17:50:15;;;;;;;23.25;8.93;;;;;;;15.75;61.99;95023.28;5113122;28;20222;-70
2023/10/30 17:52:41;;;;;;;18.80;7.47;;;;;;;15.75;62.40;95047.16;5113306;28;20184;-69
2023/10/30 17:55:07;;;;;;;18.48;8.65;;;;;;;15.63;62.76;95039.28;5094882;28;20177;-70
2023/10/30 17:57:32;;;;;;;40.00;18.63;;;;;;;15.53;63.06;95051.50;5113432;28;20181;-71
2023/10/30 17:59:57;;;;;;;32.45;13.93;;;;;;;15.42;63.76;95053.97;5112765;28;20173;-70
2023/10/30 18:02:23;;;;;;;44.78;19.42;;;;;;;15.36;64.19;95046.16;5111927;27;20177;-71
2023/10/30 18:04:48;;;;;;;34.10;12.07;;;;;;;15.32;63.84;95048.47;5112824;28;20177;-71
2023/10/30 18:07:14;;;;;;;30.67;14.38;;;;;;;15.29;64.01;95054.25;5112399;28;20198;-70
2023/10/30 18:09:39;;;;;;;37.17;18.75;;;;;;;15.19;63.97;95046.09;5112046;28;20272;-69
2023/10/30 18:12:08;;;;;;;40.80;19.73;;;;;;;15.16;63.86;95048.38;5112593;28;20259;-69
2023/10/30 18:14:33;;;;;;;50.78;24.25;;;;;;;15.13;64.10;95054.19;5111739;28;20818;-70
2023/10/30 18:16:59;;;;;;;66.57;29.70;;;;;;;15.10;64.46;95044.84;5089285;28;20192;-69
2023/10/30 18:19:24;;;;;;;46.38;23.52;;;;;;;15.07;64.48;95055.91;5113571;28;20259;-69
2023/10/30 18:21:51;;;;;;;59.25;26.80;;;;;;;14.91;64.98;95040.72;5113911;28;20173;-69
2023/10/30 18:24:20;;;;;;;73.28;36.28;;;;;;;14.93;65.22;95054.53;5112304;28;20644;-70
2023/10/30 18:26:49;;;;;;;92.10;43.17;;;;;;;14.91;65.41;95059.28;5113036;27;20176;-69
2023/10/30 18:29:18;;;;;;;84.57;40.97;;;;;;;14.86;65.64;95057.31;5093735;28;20220;-69
2023/10/30 18:31:46;;;;;;;71.32;36.10;;;;;;;14.73;65.72;95045.09;5110684;28;20674;-69
2023/10/30 18:34:12;;;;;;;95.18;40.13;;;;;;;14.60;65.98;95034.75;5125737;27;20239;-69
2023/10/30 18:36:37;;;;;;;93.60;40.17;;;;;;;14.64;66.34;95059.75;5109864;27;20192;-69
2023/10/30 18:39:04;;;;;;;84.23;37.77;;;;;;;14.59;66.50;95059.63;5111525;28;20226;-69
2023/10/30 18:41:29;;;;;;;54.43;25.37;;;;;;;14.59;66.76;95061.47;5110615;27;20264;-69
2023/10/30 18:43:55;;;;;;;74.60;31.80;;;;;;;14.52;67.04;95058.16;5110105;27;20318;-69
2023/10/30 18:46:22;;;;;;;53.22;27.27;;;;;;;14.40;67.45;95059.97;5110895;28;20242;-69
2023/10/30 18:48:48;;;;;;;40.30;17.85;;;;;;;14.09;68.24;95064.50;5111057;28;20460;-69
2023/10/30 18:51:13;;;;;;;42.07;17.93;;;;;;;13.93;69.06;95065.13;5091715;28;20407;-68
2023/10/30 18:53:39;;;;;;;48.03;17.97;;;;;;;14.05;68.54;95062.53;5109839;27;20426;-70
2023/10/30 18:56:06;;;;;;;32.13;16.20;;;;;;;14.10;68.57;95066.09;5111789;28;20234;-69
2023/10/30 18:58:32;;;;;;;44.75;19.48;;;;;;;14.19;68.41;95064.72;5109778;28;20303;-69
2023/10/30 19:00:57;;;;;;;56.05;24.90;;;;;;;14.13;68.47;95059.56;5115597;27;20596;-70
2023/10/30 19:03:23;;;;;;;59.78;23.73;;;;;;;14.23;68.37;95070.41;5109769;27;20947;-69
2023/10/30 19:05:48;;;;;;;54.75;22.60;;;;;;;14.17;68.27;95060.72;5110610;28;20177;-69
2023/10/30 19:08:14;;;;;;;59.93;24.23;;;;;;;14.11;68.58;95067.72;5120079;27;20164;-70
2023/10/30 19:10:41;;;;;;;49.27;21.43;;;;;;;13.96;68.47;95051.47;5112362;27;20192;-69
2023/10/30 19:13:07;;;;;;;62.85;24.45;;;;;;;14.07;68.82;95073.69;5121394;27;20736;-70
2023/10/30 19:15:37;;;;;;;68.97;33.60;;;;;;;14.01;69.62;95064.81;5092490;28;20189;-69
2023/10/30 19:18:03;;;;;;;85.53;39.90;;;;;;;14.05;69.68;95081.06;5110280;28;20616;-70
2023/10/30 19:20:29;;;;;;;67.77;29.20;;;;;;;13.86;70.01;95054.66;5110419;28;20181;-70
2023/10/30 19:22:54;;;;;;;98.83;42.97;;;;;;;13.93;70.44;95071.22;5110115;28;20595;-69
2023/10/30 19:25:20;;;;;;;114.90;48.43;;;;;;;13.87;70.49;95061.56;5109781;28;20161;-69
2023/10/30 19:27:46;;;;;;;46.63;22.47;;;;;;;13.85;70.13;95066.25;5109917;28;20180;-69
2023/10/30 19:30:12;;;;;;;60.43;24.50;;;;;;;13.86;69.49;95075.81;5110523;28;20272;-69
2023/10/30 19:32:41;;;;;;;48.90;23.43;;;;;;;13.80;70.03;95068.78;5110274;28;20169;-69
2023/10/30 19:35:07;;;;;;;70.93;29.20;;;;;;;13.73;70.33;95076.03;5110041;28;20237;-69
2023/10/30 19:37:32;;;;;;;52.27;24.10;;;;;;;13.68;70.81;95075.88;5109802;28;20161;-69
2023/10/30 19:39:58;;;;;;;61.93;26.80;;;;;;;13.76;73.28;95067.63;5109880;28;20169;-69
2023/10/30 19:42:24;;;;;;;60.23;24.67;;;;;;;13.66;73.26;95064.72;5109401;28;20712;-69
2023/10/30 19:44:50;;;;;;;62.47;25.60;;;;;;;13.63;73.25;95078.41;5110069;28;20161;-69
2023/10/30 19:47:17;;;;;;;56.77;23.40;;;;;;;13.52;73.34;95082.59;5109534;28;20177;-69
2023/10/30 19:49:42;;;;;;;48.33;20.57;;;;;;;13.30;72.05;95070.06;5109271;28;20777;-70
2023/10/30 19:52:08;;;;;;;37.30;18.57;;;;;;;13.29;73.15;95089.59;5108965;28;20415;-69
2023/10/30 19:54:33;;;;;;;40.43;18.53;;;;;;;13.27;73.26;95086.38;5090090;28;20843;-69
2023/10/30 19:56:59;;;;;;;45.63;19.70;;;;;;;13.34;72.89;95095.84;5109327;28;20843;-70
2023/10/30 19:59:25;;;;;;;33.17;14.43;;;;;;;13.32;73.05;95099.75;5109846;28;20226;-69
2023/10/30 20:01:53;;;;;;;45.37;18.80;;;;;;;13.20;73.24;95083.81;5110310;28;20161;-69
2023/10/30 20:04:18;;;;;;;31.17;15.17;;;;;;;13.28;73.51;95109.94;5109497;28;20265;-69
2023/10/30 20:06:44;;;;;;;38.57;15.60;;;;;;;13.26;73.95;95101.41;5109802;28;20291;-70
2023/10/30 20:09:10;;;;;;;33.20;14.23;;;;;;;13.16;73.45;95094.00;5109489;28;20450;-70
2023/10/30 20:11:36;;;;;;;33.97;13.77;;;;;;;13.16;73.48;95096.66;5109358;28;20196;-70
2023/10/30 20:14:01;;;;;;;36.03;14.13;;;;;;;13.21;73.85;95110.03;5109633;28;20643;-70
2023/10/30 20:16:27;;;;;;;33.47;13.90;;;;;;;13.22;73.42;95110.84;5108670;27;20188;-70
2023/10/30 20:18:54;;;;;;;53.63;20.20;;;;;;;13.12;73.61;95108.69;5110821;27;20253;-70
2023/10/30 20:21:19;;;;;;;52.53;17.57;;;;;;;13.09;73.95;95117.03;5108623;28;20176;-70
2023/10/30 20:23:45;;;;;;;41.17;16.53;;;;;;;13.08;74.63;95114.59;5108887;28;20177;-70
2023/10/30 20:26:11;;;;;;;45.50;16.90;;;;;;;13.05;74.84;95125.63;5109126;28;20325;-70
2023/10/30 20:28:37;;;;;;;48.97;17.03;;;;;;;12.99;74.74;95129.13;5109810;27;20564;-69
2023/10/30 20:31:03;;;;;;;44.90;17.70;;;;;;;12.92;74.97;95120.47;5109364;28;20168;-70
2023/10/30 20:33:29;;;;;;;58.30;18.13;;;;;;;12.89;75.38;95131.47;5109970;28;20195;-70